sensor_id;sensor_type;location;lat;lon;timestamp;P1;durP1;ratioP1;P2;durP2;ratioP2
74788;SDS011;63313;48.258;12.518;2022-11-15T00:04:02;21.74;;;11.49;;
74788;SDS011;63313;48.258;12.518;2022-11-15T00:09:29;25.76;;;12.849999999999998;;
74788;SDS011;63313;48.258;12.518;2022-11-15T00:14:56;20.880000000000003;;;11.21;;
74788;SDS011;63313;48.258;12.518;2022-11-15T00:20:23;30.07;;;13.459999999999999;;
74788;SDS011;63313;48.258;12.518;2022-11-15T00:25:55;23.21;;;11.91;;
74788;SDS011;63313;48.258;12.518;2022-11-15T00:31:22;23.71;;;11.999999999999998;;
74788;SDS011;63313;48.258;12.518;2022-11-15T00:36:49;22.01;;;12.059999999999999;;
74788;SDS011;63313;48.258;12.518;2022-11-15T00:42:16;24.700000000000003;;;13.0;;
74788;SDS011;63313;48.258;12.518;2022-11-15T00:47:43;18.499999999999996;;;10.440000000000001;;
74788;SDS011;63313;48.258;12.518;2022-11-15T00:53:11;23.23;;;12.04;;
74788;SDS011;63313;48.258;12.518;2022-11-15T00:58:38;18.080000000000002;;;10.500000000000002;;
74788;SDS011;63313;48.258;12.518;2022-11-15T01:04:05;21.839999999999996;;;11.69;;
74788;SDS011;63313;48.258;12.518;2022-11-15T01:09:32;31.720000000000006;;;14.790000000000003;;
74788;SDS011;63313;48.258;12.518;2022-11-15T01:14:59;29.75;;;14.65;;
74788;SDS011;63313;48.258;12.518;2022-11-15T01:20:26;26.95;;;14.690000000000001;;
74788;SDS011;63313;48.258;12.518;2022-11-15T01:25:58;28.47;;;14.13;;
74788;SDS011;63313;48.258;12.518;2022-11-15T01:31:25;26.080000000000002;;;14.12;;
74788;SDS011;63313;48.258;12.518;2022-11-15T01:36:52;29.110000000000003;;;13.189999999999998;;
74788;SDS011;63313;48.258;12.518;2022-11-15T01:42:19;23.620000000000005;;;12.85;;
74788;SDS011;63313;48.258;12.518;2022-11-15T01:47:46;23.970000000000002;;;12.28;;
74788;SDS011;63313;48.258;12.518;2022-11-15T01:53:15;25.14;;;11.79;;
74788;SDS011;63313;48.258;12.518;2022-11-15T01:58:42;21.23;;;11.440000000000001;;
74788;SDS011;63313;48.258;12.518;2022-11-15T02:04:11;39.35;;;12.59;;
74788;SDS011;63313;48.258;12.518;2022-11-15T02:09:39;52.4;;;13.01;;
74788;SDS011;63313;48.258;12.518;2022-11-15T02:15:07;23.740000000000002;;;10.97;;
74788;SDS011;63313;48.258;12.518;2022-11-15T02:20:39;22.07;;;10.39;;
74788;SDS011;63313;48.258;12.518;2022-11-15T02:26:14;24.520000000000003;;;10.780000000000003;;
74788;SDS011;63313;48.258;12.518;2022-11-15T02:31:45;17.08;;;9.430000000000001;;
74788;SDS011;63313;48.258;12.518;2022-11-15T02:37:16;18.68;;;9.22;;
74788;SDS011;63313;48.258;12.518;2022-11-15T02:42:45;17.919999999999998;;;9.92;;
74788;SDS011;63313;48.258;12.518;2022-11-15T02:48:13;25.200000000000003;;;11.16;;
74788;SDS011;63313;48.258;12.518;2022-11-15T02:53:42;20.99;;;9.67;;
74788;SDS011;63313;48.258;12.518;2022-11-15T02:59:13;26.93;;;11.429999999999998;;
74788;SDS011;63313;48.258;12.518;2022-11-15T03:04:45;24.4;;;11.179999999999998;;
74788;SDS011;63313;48.258;12.518;2022-11-15T03:10:17;29.65;;;12.43;;
74788;SDS011;63313;48.258;12.518;2022-11-15T03:15:48;27.379999999999995;;;12.690000000000001;;
74788;SDS011;63313;48.258;12.518;2022-11-15T03:21:18;33.120000000000005;;;13.65;;
74788;SDS011;63313;48.258;12.518;2022-11-15T03:26:46;30.53;;;13.11;;
74788;SDS011;63313;48.258;12.518;2022-11-15T03:32:15;33.87;;;12.26;;
74788;SDS011;63313;48.258;12.518;2022-11-15T03:37:44;26.159999999999997;;;11.09;;
74788;SDS011;63313;48.258;12.518;2022-11-15T03:43:14;27.620000000000005;;;11.280000000000001;;
74788;SDS011;63313;48.258;12.518;2022-11-15T03:48:45;26.220000000000006;;;11.919999999999998;;
74788;SDS011;63313;48.258;12.518;2022-11-15T03:54:15;22.990000000000002;;;10.73;;
74788;SDS011;63313;48.258;12.518;2022-11-15T03:59:42;28.15;;;12.33;;
74788;SDS011;63313;48.258;12.518;2022-11-15T04:05:09;28.29;;;13.13;;
74788;SDS011;63313;48.258;12.518;2022-11-15T04:10:36;29.649999999999995;;;13.61;;
74788;SDS011;63313;48.258;12.518;2022-11-15T04:16:03;28.96;;;13.479999999999999;;
74788;SDS011;63313;48.258;12.518;2022-11-15T04:21:30;62.39;;;15.14;;
74788;SDS011;63313;48.258;12.518;2022-11-15T04:26:58;74.67;;;16.71;;
74788;SDS011;63313;48.258;12.518;2022-11-15T04:32:25;46.010000000000005;;;14.279999999999998;;
74788;SDS011;63313;48.258;12.518;2022-11-15T04:37:52;34.91000000000001;;;13.15;;
74788;SDS011;63313;48.258;12.518;2022-11-15T04:43:19;34.900000000000006;;;15.559999999999999;;
74788;SDS011;63313;48.258;12.518;2022-11-15T04:48:46;34.57;;;14.930000000000001;;
74788;SDS011;63313;48.258;12.518;2022-11-15T04:54:13;42.95;;;17.88;;
74788;SDS011;63313;48.258;12.518;2022-11-15T04:59:40;47.28;;;18.939999999999998;;
74788;SDS011;63313;48.258;12.518;2022-11-15T05:05:07;43.17999999999999;;;19.02;;
74788;SDS011;63313;48.258;12.518;2022-11-15T05:10:35;39.93;;;19.799999999999997;;
74788;SDS011;63313;48.258;12.518;2022-11-15T05:16:02;36.52;;;16.08;;
74788;SDS011;63313;48.258;12.518;2022-11-15T05:21:29;36.7;;;15.15;;
74788;SDS011;63313;48.258;12.518;2022-11-15T05:26:56;26.43;;;11.32;;
74788;SDS011;63313;48.258;12.518;2022-11-15T05:32:23;66.35;;;15.1;;
74788;SDS011;63313;48.258;12.518;2022-11-15T05:37:50;37.67;;;14.3;;
74788;SDS011;63313;48.258;12.518;2022-11-15T05:43:17;34.18999999999999;;;13.12;;
74788;SDS011;63313;48.258;12.518;2022-11-15T05:48:45;76.63999999999999;;;15.2;;
74788;SDS011;63313;48.258;12.518;2022-11-15T05:54:13;52.21;;;14.05;;
74788;SDS011;63313;48.258;12.518;2022-11-15T05:59:40;118.97999999999999;;;18.419999999999998;;
74788;SDS011;63313;48.258;12.518;2022-11-15T06:05:07;86.11999999999999;;;14.13;;
74788;SDS011;63313;48.258;12.518;2022-11-15T06:10:35;66.12;;;14.11;;
74788;SDS011;63313;48.258;12.518;2022-11-15T06:16:02;38.61;;;15.429999999999998;;
74788;SDS011;63313;48.258;12.518;2022-11-15T06:21:29;110.54;;;18.169999999999998;;
74788;SDS011;63313;48.258;12.518;2022-11-15T06:26:56;100.98;;;17.32;;
74788;SDS011;63313;48.258;12.518;2022-11-15T06:32:23;119.4;;;17.809999999999995;;
74788;SDS011;63313;48.258;12.518;2022-11-15T06:37:50;129.78;;;19.02;;
74788;SDS011;63313;48.258;12.518;2022-11-15T06:43:17;49.05;;;15.389999999999997;;
74788;SDS011;63313;48.258;12.518;2022-11-15T06:48:44;47.07000000000001;;;14.809999999999999;;
74788;SDS011;63313;48.258;12.518;2022-11-15T06:54:11;70.19000000000001;;;16.0;;
74788;SDS011;63313;48.258;12.518;2022-11-15T06:59:39;75.93;;;18.18;;
74788;SDS011;63313;48.258;12.518;2022-11-15T07:05:06;77.30999999999999;;;17.45;;
74788;SDS011;63313;48.258;12.518;2022-11-15T07:10:33;44.940000000000005;;;12.91;;
74788;SDS011;63313;48.258;12.518;2022-11-15T07:16:01;24.04;;;13.0;;
74788;SDS011;63313;48.258;12.518;2022-11-15T07:21:28;35.66;;;13.919999999999998;;
74788;SDS011;63313;48.258;12.518;2022-11-15T07:26:55;43.19;;;14.680000000000001;;
74788;SDS011;63313;48.258;12.518;2022-11-15T07:32:23;88.6;;;18.87;;
74788;SDS011;63313;48.258;12.518;2022-11-15T07:37:53;61.489999999999995;;;15.729999999999999;;
74788;SDS011;63313;48.258;12.518;2022-11-15T07:43:21;42.03999999999999;;;13.89;;
74788;SDS011;63313;48.258;12.518;2022-11-15T07:48:48;40.93999999999999;;;13.84;;
74788;SDS011;63313;48.258;12.518;2022-11-15T07:54:15;90.03;;;15.719999999999999;;
74788;SDS011;63313;48.258;12.518;2022-11-15T07:59:42;67.17999999999999;;;15.37;;
74788;SDS011;63313;48.258;12.518;2022-11-15T08:05:09;152.54000000000002;;;18.27;;
74788;SDS011;63313;48.258;12.518;2022-11-15T08:10:36;75.21;;;18.83;;
74788;SDS011;63313;48.258;12.518;2022-11-15T08:16:04;75.45000000000002;;;20.22;;
74788;SDS011;63313;48.258;12.518;2022-11-15T08:21:31;115.77000000000001;;;23.880000000000003;;
74788;SDS011;63313;48.258;12.518;2022-11-15T08:26:58;99.2;;;22.580000000000002;;
74788;SDS011;63313;48.258;12.518;2022-11-15T08:32:25;73.7;;;27.32;;
74788;SDS011;63313;48.258;12.518;2022-11-15T08:37:52;112.8;;;27.540000000000003;;
74788;SDS011;63313;48.258;12.518;2022-11-15T08:43:20;76.2;;;26.660000000000004;;
74788;SDS011;63313;48.258;12.518;2022-11-15T08:48:47;70.66;;;24.8;;
74788;SDS011;63313;48.258;12.518;2022-11-15T08:54:14;84.53;;;30.98;;
74788;SDS011;63313;48.258;12.518;2022-11-15T08:59:41;64.13;;;26.25;;
74788;SDS011;63313;48.258;12.518;2022-11-15T09:05:08;45.18000000000001;;;22.23;;
74788;SDS011;63313;48.258;12.518;2022-11-15T09:10:35;29.340000000000003;;;15.560000000000002;;
74788;SDS011;63313;48.258;12.518;2022-11-15T09:16:03;22.919999999999998;;;13.529999999999998;;
74788;SDS011;63313;48.258;12.518;2022-11-15T09:21:30;24.83;;;11.37;;
74788;SDS011;63313;48.258;12.518;2022-11-15T09:26:57;151.9;;;22.01;;
74788;SDS011;63313;48.258;12.518;2022-11-15T09:32:27;19.17;;;11.620000000000001;;
74788;SDS011;63313;48.258;12.518;2022-11-15T09:37:54;32.769999999999996;;;11.63;;
74788;SDS011;63313;48.258;12.518;2022-11-15T09:43:27;23.44;;;11.629999999999999;;
74788;SDS011;63313;48.258;12.518;2022-11-15T09:48:55;18.04;;;10.859999999999998;;
74788;SDS011;63313;48.258;12.518;2022-11-15T09:54:26;16.73;;;9.430000000000001;;
74788;SDS011;63313;48.258;12.518;2022-11-15T09:59:58;15.95;;;9.260000000000002;;
74788;SDS011;63313;48.258;12.518;2022-11-15T10:05:26;18.91;;;9.95;;
74788;SDS011;63313;48.258;12.518;2022-11-15T10:10:56;21.71;;;13.419999999999998;;
74788;SDS011;63313;48.258;12.518;2022-11-15T10:16:28;18.509999999999998;;;11.98;;
74788;SDS011;63313;48.258;12.518;2022-11-15T10:22:00;21.13;;;13.38;;
74788;SDS011;63313;48.258;12.518;2022-11-15T10:27:31;16.240000000000002;;;11.35;;
74788;SDS011;63313;48.258;12.518;2022-11-15T10:32:58;13.919999999999998;;;9.589999999999998;;
74788;SDS011;63313;48.258;12.518;2022-11-15T10:38:43;14.169999999999998;;;8.379999999999999;;
74788;SDS011;63313;48.258;12.518;2022-11-15T10:44:18;15.8;;;8.8;;
74788;SDS011;63313;48.258;12.518;2022-11-15T10:49:52;9.620000000000001;;;7.470000000000001;;
74788;SDS011;63313;48.258;12.518;2022-11-15T10:55:21;8.540000000000001;;;6.21;;
74788;SDS011;63313;48.258;12.518;2022-11-15T11:00:49;8.719999999999999;;;5.709999999999999;;
74788;SDS011;63313;48.258;12.518;2022-11-15T11:06:19;7.2700000000000005;;;5.6899999999999995;;
74788;SDS011;63313;48.258;12.518;2022-11-15T11:11:46;8.440000000000001;;;5.48;;
74788;SDS011;63313;48.258;12.518;2022-11-15T11:17:16;7.93;;;5.869999999999999;;
74788;SDS011;63313;48.258;12.518;2022-11-15T11:22:47;7.850000000000001;;;5.540000000000001;;
74788;SDS011;63313;48.258;12.518;2022-11-15T11:28:24;6.87;;;4.97;;
74788;SDS011;63313;48.258;12.518;2022-11-15T11:33:56;6.35;;;5.18;;
74788;SDS011;63313;48.258;12.518;2022-11-15T11:39:26;6.590000000000001;;;5.16;;
74788;SDS011;63313;48.258;12.518;2022-11-15T11:44:57;12.84;;;6.42;;
74788;SDS011;63313;48.258;12.518;2022-11-15T11:50:27;5.67;;;4.5200000000000005;;
74788;SDS011;63313;48.258;12.518;2022-11-15T11:55:56;6.22;;;5.01;;
74788;SDS011;63313;48.258;12.518;2022-11-15T12:01:24;8.610000000000001;;;5.49;;
74788;SDS011;63313;48.258;12.518;2022-11-15T12:06:53;7.389999999999999;;;5.23;;
74788;SDS011;63313;48.258;12.518;2022-11-15T12:12:25;6.43;;;4.470000000000001;;
74788;SDS011;63313;48.258;12.518;2022-11-15T12:17:54;6.6;;;4.369999999999999;;
74788;SDS011;63313;48.258;12.518;2022-11-15T12:23:23;5.76;;;4.880000000000001;;
74788;SDS011;63313;48.258;12.518;2022-11-15T12:28:52;7.38;;;4.4799999999999995;;
74788;SDS011;63313;48.258;12.518;2022-11-15T12:34:38;5.799999999999999;;;4.38;;
74788;SDS011;63313;48.258;12.518;2022-11-15T12:40:23;6.08;;;4.34;;
74788;SDS011;63313;48.258;12.518;2022-11-15T12:45:51;7.33;;;4.89;;
74788;SDS011;63313;48.258;12.518;2022-11-15T12:51:19;5.66;;;4.720000000000001;;
74788;SDS011;63313;48.258;12.518;2022-11-15T12:56:48;4.970000000000001;;;4.380000000000001;;
74788;SDS011;63313;48.258;12.518;2022-11-15T13:02:48;5.97;;;4.49;;
74788;SDS011;63313;48.258;12.518;2022-11-15T13:08:32;6.26;;;4.409999999999999;;
74788;SDS011;63313;48.258;12.518;2022-11-15T13:14:00;6.76;;;4.27;;
74788;SDS011;63313;48.258;12.518;2022-11-15T13:19:27;7.649999999999999;;;5.29;;
74788;SDS011;63313;48.258;12.518;2022-11-15T13:24:55;6.92;;;5.06;;
74788;SDS011;63313;48.258;12.518;2022-11-15T13:30:24;7.159999999999999;;;5.46;;
74788;SDS011;63313;48.258;12.518;2022-11-15T13:35:51;7.63;;;5.729999999999999;;
74788;SDS011;63313;48.258;12.518;2022-11-15T13:41:20;7.410000000000001;;;5.550000000000001;;
74788;SDS011;63313;48.258;12.518;2022-11-15T13:46:48;7.470000000000001;;;5.619999999999999;;
74788;SDS011;63313;48.258;12.518;2022-11-15T13:52:15;8.97;;;5.55;;
74788;SDS011;63313;48.258;12.518;2022-11-15T13:57:44;8.03;;;6.01;;
74788;SDS011;63313;48.258;12.518;2022-11-15T14:03:14;8.329999999999998;;;6.31;;
74788;SDS011;63313;48.258;12.518;2022-11-15T14:08:57;9.820000000000002;;;6.4399999999999995;;
74788;SDS011;63313;48.258;12.518;2022-11-15T14:14:24;7.13;;;5.45;;
74788;SDS011;63313;48.258;12.518;2022-11-15T14:19:52;8.629999999999999;;;6.590000000000001;;
74788;SDS011;63313;48.258;12.518;2022-11-15T14:25:20;9.809999999999999;;;5.92;;
74788;SDS011;63313;48.258;12.518;2022-11-15T14:30:47;10.15;;;6.6;;
74788;SDS011;63313;48.258;12.518;2022-11-15T14:36:15;13.2;;;8.39;;
74788;SDS011;63313;48.258;12.518;2022-11-15T14:41:42;12.140000000000002;;;8.2;;
74788;SDS011;63313;48.258;12.518;2022-11-15T14:47:10;14.430000000000001;;;9.169999999999998;;
74788;SDS011;63313;48.258;12.518;2022-11-15T14:52:37;17.319999999999997;;;9.17;;
74788;SDS011;63313;48.258;12.518;2022-11-15T14:58:04;15.569999999999999;;;8.35;;
74788;SDS011;63313;48.258;12.518;2022-11-15T15:03:32;30.72;;;11.48;;
74788;SDS011;63313;48.258;12.518;2022-11-15T15:08:59;26.45;;;15.25;;
74788;SDS011;63313;48.258;12.518;2022-11-15T15:14:26;36.6;;;21.970000000000002;;
74788;SDS011;63313;48.258;12.518;2022-11-15T15:19:53;44.42999999999999;;;25.970000000000006;;
74788;SDS011;63313;48.258;12.518;2022-11-15T15:25:21;42.58;;;25.48;;
74788;SDS011;63313;48.258;12.518;2022-11-15T15:30:48;48.09;;;26.78;;
74788;SDS011;63313;48.258;12.518;2022-11-15T15:36:16;46.91;;;27.15;;
74788;SDS011;63313;48.258;12.518;2022-11-15T15:41:44;49.120000000000005;;;25.6;;
74788;SDS011;63313;48.258;12.518;2022-11-15T15:47:11;44.709999999999994;;;23.259999999999998;;
74788;SDS011;63313;48.258;12.518;2022-11-15T15:52:38;42.89;;;24.229999999999997;;
74788;SDS011;63313;48.258;12.518;2022-11-15T15:58:05;56.160000000000004;;;28.109999999999996;;
74788;SDS011;63313;48.258;12.518;2022-11-15T16:03:32;47.62;;;26.140000000000004;;
74788;SDS011;63313;48.258;12.518;2022-11-15T16:09:00;53.120000000000005;;;26.49;;
74788;SDS011;63313;48.258;12.518;2022-11-15T16:14:27;42.86;;;21.14;;
74788;SDS011;63313;48.258;12.518;2022-11-15T16:19:54;29.169999999999998;;;17.479999999999997;;
74788;SDS011;63313;48.258;12.518;2022-11-15T16:25:21;27.170000000000005;;;16.83;;
74788;SDS011;63313;48.258;12.518;2022-11-15T16:30:49;31.209999999999997;;;18.8;;
74788;SDS011;63313;48.258;12.518;2022-11-15T16:36:18;34.010000000000005;;;18.720000000000002;;
74788;SDS011;63313;48.258;12.518;2022-11-15T16:41:46;27.169999999999998;;;15.39;;
74788;SDS011;63313;48.258;12.518;2022-11-15T16:47:15;26.090000000000003;;;15.89;;
74788;SDS011;63313;48.258;12.518;2022-11-15T16:52:43;19.72;;;12.3;;
74788;SDS011;63313;48.258;12.518;2022-11-15T16:58:10;18.82;;;12.309999999999999;;
74788;SDS011;63313;48.258;12.518;2022-11-15T17:03:37;22.71;;;12.120000000000001;;
74788;SDS011;63313;48.258;12.518;2022-11-15T17:09:04;19.83;;;10.400000000000002;;
74788;SDS011;63313;48.258;12.518;2022-11-15T17:14:32;19.23;;;10.580000000000002;;
74788;SDS011;63313;48.258;12.518;2022-11-15T17:19:59;19.48;;;10.95;;
74788;SDS011;63313;48.258;12.518;2022-11-15T17:25:26;15.85;;;10.250000000000002;;
74788;SDS011;63313;48.258;12.518;2022-11-15T17:30:53;19.419999999999998;;;11.41;;
74788;SDS011;63313;48.258;12.518;2022-11-15T17:36:20;26.439999999999998;;;12.91;;
74788;SDS011;63313;48.258;12.518;2022-11-15T17:41:47;19.31;;;11.489999999999998;;
74788;SDS011;63313;48.258;12.518;2022-11-15T17:47:14;22.32;;;12.33;;
74788;SDS011;63313;48.258;12.518;2022-11-15T17:52:41;23.720000000000002;;;12.879999999999999;;
74788;SDS011;63313;48.258;12.518;2022-11-15T17:58:08;27.150000000000006;;;13.819999999999999;;
74788;SDS011;63313;48.258;12.518;2022-11-15T18:03:36;29.580000000000002;;;15.219999999999999;;
74788;SDS011;63313;48.258;12.518;2022-11-15T18:09:03;38.61;;;22.150000000000002;;
74788;SDS011;63313;48.258;12.518;2022-11-15T18:14:30;46.63;;;23.259999999999998;;
74788;SDS011;63313;48.258;12.518;2022-11-15T18:19:58;57.68000000000001;;;29.22;;
74788;SDS011;63313;48.258;12.518;2022-11-15T18:25:25;52.779999999999994;;;27.3;;
74788;SDS011;63313;48.258;12.518;2022-11-15T18:30:52;54.7;;;28.369999999999997;;
74788;SDS011;63313;48.258;12.518;2022-11-15T18:36:20;44.75;;;24.119999999999997;;
74788;SDS011;63313;48.258;12.518;2022-11-15T18:41:47;47.42;;;24.65;;
74788;SDS011;63313;48.258;12.518;2022-11-15T18:47:15;74.12;;;32.17;;
74788;SDS011;63313;48.258;12.518;2022-11-15T18:52:42;62.11;;;28.0;;
74788;SDS011;63313;48.258;12.518;2022-11-15T18:58:09;46.74;;;23.1;;
74788;SDS011;63313;48.258;12.518;2022-11-15T19:03:37;40.71;;;20.95;;
74788;SDS011;63313;48.258;12.518;2022-11-15T19:09:04;40.410000000000004;;;23.019999999999996;;
74788;SDS011;63313;48.258;12.518;2022-11-15T19:14:31;39.349999999999994;;;19.740000000000002;;
74788;SDS011;63313;48.258;12.518;2022-11-15T19:19:58;44.71;;;21.689999999999998;;
74788;SDS011;63313;48.258;12.518;2022-11-15T19:25:25;43.34;;;22.44;;
74788;SDS011;63313;48.258;12.518;2022-11-15T19:30:53;49.6;;;23.62;;
74788;SDS011;63313;48.258;12.518;2022-11-15T19:36:21;42.11;;;22.28;;
74788;SDS011;63313;48.258;12.518;2022-11-15T19:41:48;54.04;;;27.9;;
74788;SDS011;63313;48.258;12.518;2022-11-15T19:47:15;41.44;;;20.04;;
74788;SDS011;63313;48.258;12.518;2022-11-15T19:52:42;33.790000000000006;;;17.6;;
74788;SDS011;63313;48.258;12.518;2022-11-15T19:58:09;29.230000000000008;;;16.12;;
74788;SDS011;63313;48.258;12.518;2022-11-15T20:03:37;36.04;;;15.84;;
74788;SDS011;63313;48.258;12.518;2022-11-15T20:09:04;35.059999999999995;;;16.52;;
74788;SDS011;63313;48.258;12.518;2022-11-15T20:14:31;70.36999999999999;;;18.47;;
74788;SDS011;63313;48.258;12.518;2022-11-15T20:19:58;110.53;;;18.6;;
74788;SDS011;63313;48.258;12.518;2022-11-15T20:25:25;90.45;;;21.68;;
74788;SDS011;63313;48.258;12.518;2022-11-15T20:30:53;53.27;;;18.299999999999997;;
74788;SDS011;63313;48.258;12.518;2022-11-15T20:36:21;143.76999999999998;;;19.560000000000002;;
74788;SDS011;63313;48.258;12.518;2022-11-15T20:41:48;53.71;;;17.13;;
74788;SDS011;63313;48.258;12.518;2022-11-15T20:47:15;119.11999999999998;;;19.71;;
74788;SDS011;63313;48.258;12.518;2022-11-15T20:52:42;77.08999999999999;;;18.03;;
74788;SDS011;63313;48.258;12.518;2022-11-15T20:58:11;89.56000000000002;;;18.990000000000002;;
74788;SDS011;63313;48.258;12.518;2022-11-15T21:03:38;121.28;;;21.500000000000004;;
74788;SDS011;63313;48.258;12.518;2022-11-15T21:09:05;178.17;;;24.91;;
74788;SDS011;63313;48.258;12.518;2022-11-15T21:14:32;76.82000000000001;;;24.330000000000002;;
74788;SDS011;63313;48.258;12.518;2022-11-15T21:19:59;170.03;;;23.72;;
74788;SDS011;63313;48.258;12.518;2022-11-15T21:25:26;180.38;;;22.880000000000003;;
74788;SDS011;63313;48.258;12.518;2022-11-15T21:30:54;60.98;;;21.22;;
74788;SDS011;63313;48.258;12.518;2022-11-15T21:36:21;86.2;;;22.470000000000002;;
74788;SDS011;63313;48.258;12.518;2022-11-15T21:41:48;52.540000000000006;;;21.79;;
74788;SDS011;63313;48.258;12.518;2022-11-15T21:47:16;115.55999999999999;;;23.259999999999998;;
74788;SDS011;63313;48.258;12.518;2022-11-15T21:52:43;53.169999999999995;;;23.11;;
74788;SDS011;63313;48.258;12.518;2022-11-15T21:58:10;112.58;;;31.990000000000002;;
74788;SDS011;63313;48.258;12.518;2022-11-15T22:03:37;144.34;;;33.89999999999999;;
74788;SDS011;63313;48.258;12.518;2022-11-15T22:09:04;109.39000000000001;;;29.689999999999998;;
74788;SDS011;63313;48.258;12.518;2022-11-15T22:14:31;138.88;;;28.940000000000005;;
74788;SDS011;63313;48.258;12.518;2022-11-15T22:19:58;113.71;;;27.859999999999996;;
74788;SDS011;63313;48.258;12.518;2022-11-15T22:25:26;201.03;;;28.02;;
74788;SDS011;63313;48.258;12.518;2022-11-15T22:30:53;104.82000000000001;;;28.990000000000002;;
74788;SDS011;63313;48.258;12.518;2022-11-15T22:36:21;87.86;;;28.229999999999997;;
74788;SDS011;63313;48.258;12.518;2022-11-15T22:41:48;68.64;;;27.02;;
74788;SDS011;63313;48.258;12.518;2022-11-15T22:47:15;77.91;;;28.05;;
74788;SDS011;63313;48.258;12.518;2022-11-15T22:52:42;80.74000000000001;;;21.419999999999998;;
74788;SDS011;63313;48.258;12.518;2022-11-15T22:58:09;59.160000000000004;;;18.22;;
74788;SDS011;63313;48.258;12.518;2022-11-15T23:03:36;46.52;;;18.93;;
74788;SDS011;63313;48.258;12.518;2022-11-15T23:09:03;47.05;;;19.100000000000005;;
74788;SDS011;63313;48.258;12.518;2022-11-15T23:14:30;50.33;;;17.37;;
74788;SDS011;63313;48.258;12.518;2022-11-15T23:19:57;80.52000000000001;;;19.14;;
74788;SDS011;63313;48.258;12.518;2022-11-15T23:25:24;64.97999999999999;;;19.74;;
74788;SDS011;63313;48.258;12.518;2022-11-15T23:30:51;60.50999999999999;;;20.240000000000002;;
74788;SDS011;63313;48.258;12.518;2022-11-15T23:36:18;43.76;;;17.580000000000005;;
74788;SDS011;63313;48.258;12.518;2022-11-15T23:41:45;40.18000000000001;;;17.769999999999996;;
74788;SDS011;63313;48.258;12.518;2022-11-15T23:47:12;39.52;;;17.709999999999997;;
74788;SDS011;63313;48.258;12.518;2022-11-15T23:52:40;53.00999999999999;;;22.53;;
74788;SDS011;63313;48.258;12.518;2022-11-15T23:58:07;67.84;;;26.690000000000005;;
